Aérodrome :
LOGIN :

S'inscrire | Disclaimer

   EN    FR    IT 

 










Légende :    VFR   VFR Marginal   IFR   IFR Intensif   IFR Très Intensif
Visi : 
Plafond : 
>= 8 km
>= 3000ft
5 à 8 km
1000 à 3000 ft
1500m à 5 km
500 à 1000 ft
800 à 1500m
200 à 500 ft
< 800m
< 200 ft
Symboles :   Orages  Brouillard  Fortes neiges  Fortes précipitations  Vent > 20 kt
SIGMETs :   Divers  Orages  Givrage  Turbulence  Onde Orograph.  Cendres Volcan.







- Altitude de l'aérodrome : 63 ft
- Code IATA : BZM


EHWO - Woensdrecht Airbase

DERNIER METAR :
  • 210355Z AUTO 00000KT 0900 FG SCT008 OVC310 04/04 Q1033 AMB

METARs EXPIRÉS :
  • 210343Z AUTO 32001KT 3400 BR OVC007 04/04 Q1033 YLO
  • 210333Z AUTO 32001KT 4900 BR OVC007 05/05 Q1033 GRN
  • 210325Z AUTO 00000KT 0450 FG OVC008 05/05 Q1033 RED
  • 210311Z AUTO 00000KT 1600 BR OVC009 05/04 Q1033 YLO
  • 210301Z AUTO 00000KT 0250 FG SCT009 OVC300 05/05 Q1033 RED
  • 210255Z AUTO 32001KT 0250 FG OVC320 05/05 Q1033 RED
  • 210229Z AUTO 32001KT 0450 FG OVC300 05/04 Q1033 RED
  • 210225Z AUTO 32001KT 1700 BR OVC300 05/04 Q1033 YLO
  • 210206Z AUTO 00000KT 0500 FG OVC300 05/05 Q1033 RED
  • 210155Z AUTO 32001KT 2400 BR OVC290 05/05 Q1033 YLO
  • 210125Z AUTO 36001KT 2800 BR OVC290 07/06 Q1033 YLO
  • 210113Z AUTO 16001KT 3400 BR OVC300 07/06 Q1033 YLO

Prévision TAF périmée.
Pas de NOTAMs connus pour ce terrain.



MET'MAP, la Météo Aéronautique d'un coup d'oeil ! - Copyright ORBIFLY Décembre 2007 - Disclaimer

ORBIFLY MET'MAP TEAM :

Programmation & Développement : Alexandra Zaïnal
Conception & Développement : Baudouin d'Aumeries
Co-Programmation & Développement : Marc-Olivier Méhu
Soutien technique & logistique : Manuel Goepfert

Contact : metmap@orbifly.com




SOURCES & CREDITS :

   NOAA